Time;durP1;ratioP1;P1;durP2;ratioP2;P2;SDS_P1;SDS_P2;PMS_P1;PMS_P2;Temp;Humidity;BMP_temperature;BMP_pressure;BME280_temperature;BME280_humidity;BME280_pressure;Samples;Min_cycle;Max_cycle;Signal;HPM_P1;HPM_P2
2022/06/23 00:00:32;;;;;;;2.70;1.90;;;22.70;99.90;;;;;;1040548;28;20013;-71
2022/06/23 00:01:12;;;;;;;3.13;1.90;;;22.70;99.90;;;;;;1043442;28;20856;-71
2022/06/23 00:01:59;;;;;;;2.08;1.77;;;22.70;99.90;;;;;;1043227;28;20117;-72
2022/06/23 00:02:33;;;;;;;3.83;2.03;;;22.70;99.90;;;;;;1043310;28;20041;-71
2022/06/23 00:03:05;;;;;;;2.75;1.77;;;22.70;99.90;;;;;;1049212;28;20667;-71
2022/06/23 00:03:36;;;;;;;4.50;2.08;;;22.70;99.90;;;;;;1046280;28;20044;-72
2022/06/23 00:04:14;;;;;;;2.47;1.40;;;22.80;99.90;;;;;;1043170;28;20021;-74
2022/06/23 00:04:48;;;;;;;3.00;2.15;;;22.70;99.90;;;;;;1044576;28;20840;-72
2022/06/23 00:05:22;;;;;;;3.08;1.98;;;22.60;99.90;;;;;;1044607;28;20025;-72
2022/06/23 00:05:57;;;;;;;3.10;1.92;;;22.70;99.90;;;;;;1047289;28;20020;-73
2022/06/23 00:06:38;;;;;;;2.63;1.60;;;22.70;99.90;;;;;;1047157;28;20020;-71
2022/06/23 00:07:24;;;;;;;3.47;2.08;;;22.60;99.90;;;;;;1047624;28;20030;-71
2022/06/23 00:07:58;;;;;;;2.05;1.65;;;22.60;99.90;;;;;;1047719;28;20008;-72
2022/06/23 00:08:29;;;;;;;2.92;1.98;;;22.60;99.90;;;;;;1047470;28;20446;-72
2022/06/23 00:09:00;;;;;;;2.38;1.55;;;22.60;99.90;;;;;;1047553;28;20012;-72
2022/06/23 00:09:46;;;;;;;3.00;1.90;;;22.70;99.90;;;;;;1047709;28;20138;-72
2022/06/23 00:10:53;;;;;;;2.20;1.70;;;22.60;99.90;;;;;;1047549;28;20021;-72
2022/06/23 00:11:27;;;;;;;3.55;1.65;;;22.70;99.90;;;;;;1034503;28;20053;-72
2022/06/23 00:11:58;;;;;;;3.58;1.92;;;22.90;99.90;;;;;;1034752;28;20064;-72
2022/06/23 00:12:32;;;;;;;3.03;2.42;;;22.60;99.90;;;;;;1042984;28;20029;-72
2022/06/23 00:13:12;;;;;;;2.03;1.60;;;22.70;99.90;;;;;;1047171;28;20035;-72
2022/06/23 00:13:43;;;;;;;3.60;1.98;;;22.70;99.90;;;;;;1047900;28;20136;-72
2022/06/23 00:14:14;;;;;;;2.60;1.73;;;22.60;99.90;;;;;;1047821;28;20020;-72
2022/06/23 00:14:58;;;;;;;3.80;1.85;;;22.60;99.90;;;;;;1047549;28;20370;-72
2022/06/23 00:15:41;;;;;;;2.60;1.90;;;22.60;99.90;;;;;;1047224;28;20392;-72
2022/06/23 00:16:23;;;;;;;4.28;2.40;;;22.60;99.90;;;;;;1047677;28;20477;-72
2022/06/23 00:16:53;;;;;;;3.17;2.00;;;22.60;99.90;;;;;;1047320;28;20020;-72
2022/06/23 00:17:28;;;;;;;2.10;1.80;;;22.60;99.90;;;;;;1047075;28;20017;-72
2022/06/23 00:18:06;;;;;;;3.45;2.08;;;22.70;99.90;;;;;;1047486;28;20514;-72
2022/06/23 00:18:37;;;;;;;3.85;1.90;;;22.60;99.90;;;;;;1047517;28;20031;-72
2022/06/23 00:19:13;;;;;;;3.17;2.13;;;22.40;99.90;;;;;;1047635;28;20021;-72
2022/06/23 00:19:44;;;;;;;3.92;2.53;;;22.70;99.90;;;;;;1047163;28;20029;-72
2022/06/23 00:20:23;;;;;;;2.55;1.90;;;22.60;99.90;;;;;;1047264;28;20033;-72
2022/06/23 00:21:01;;;;;;;3.40;2.10;;;22.60;99.90;;;;;;1047417;28;20538;-72
2022/06/23 00:21:34;;;;;;;3.30;1.77;;;22.60;99.90;;;;;;1047212;28;20067;-72
2022/06/23 00:22:04;;;;;;;4.75;2.25;;;22.70;99.90;;;;;;1045284;28;20016;-72
2022/06/23 00:22:38;;;;;;;2.37;1.73;;;22.60;99.90;;;;;;1047213;28;20012;-72
2022/06/23 00:23:15;;;;;;;2.15;1.60;;;22.60;99.90;;;;;;1043054;28;20614;-72
2022/06/23 00:23:50;;;;;;;2.63;1.95;;;22.60;99.90;;;;;;1044526;28;20028;-73
2022/06/23 00:24:24;;;;;;;3.20;2.17;;;22.80;99.90;;;;;;1047144;28;20013;-73
2022/06/23 00:24:58;;;;;;;3.03;2.15;;;22.60;99.90;;;;;;1046972;28;20031;-73
2022/06/23 00:25:48;;;;;;;2.22;1.83;;;22.60;99.90;;;;;;1046563;28;20017;-72
2022/06/23 00:26:27;;;;;;;4.70;2.00;;;22.50;99.90;;;;;;1047200;28;20016;-73
2022/06/23 00:26:58;;;;;;;4.20;1.92;;;22.50;99.90;;;;;;1043051;28;20310;-73
2022/06/23 00:27:32;;;;;;;3.53;2.10;;;22.40;99.90;;;;;;1043477;28;20024;-73
2022/06/23 00:28:03;;;;;;;3.63;2.05;;;22.40;99.90;;;;;;1043339;28;20017;-72
2022/06/23 00:28:41;;;;;;;2.60;2.00;;;22.50;99.90;;;;;;1043305;28;20021;-72
2022/06/23 00:29:16;;;;;;;2.70;2.03;;;22.50;99.90;;;;;;1043447;28;20020;-72
2022/06/23 00:29:47;;;;;;;3.00;2.25;;;22.50;99.90;;;;;;1043443;28;20552;-73
2022/06/23 00:30:28;;;;;;;3.13;1.88;;;22.50;99.90;;;;;;1043490;28;20043;-72
2022/06/23 00:31:02;;;;;;;3.55;2.05;;;22.50;99.90;;;;;;1043312;28;20071;-72
2022/06/23 00:31:37;;;;;;;3.08;1.88;;;22.70;99.90;;;;;;1043405;28;20013;-72
2022/06/23 00:32:10;;;;;;;2.47;1.75;;;22.30;99.90;;;;;;1043276;28;20013;-71
2022/06/23 00:32:41;;;;;;;3.30;1.88;;;22.50;99.90;;;;;;1043431;28;20096;-71
2022/06/23 00:33:22;;;;;;;4.40;2.23;;;22.40;99.90;;;;;;1043494;28;20016;-73
2022/06/23 00:33:54;;;;;;;2.75;2.00;;;22.50;99.90;;;;;;1042914;28;20584;-72
2022/06/23 00:34:38;;;;;;;2.75;1.52;;;22.50;99.90;;;;;;1038782;28;20084;-71
2022/06/23 00:35:16;;;;;;;3.05;2.05;;;22.50;99.90;;;;;;1039028;28;20126;-72
2022/06/23 00:35:50;;;;;;;4.50;2.10;;;22.50;99.90;;;;;;1041996;28;20059;-71
2022/06/23 00:36:37;;;;;;;4.15;1.90;;;22.50;99.90;;;;;;1043277;28;20031;-72
2022/06/23 00:37:15;;;;;;;3.50;2.13;;;22.40;99.90;;;;;;1043221;28;20507;-72
2022/06/23 00:37:51;;;;;;;3.25;1.90;;;22.50;99.90;;;;;;1043089;28;20500;-72
2022/06/23 00:38:31;;;;;;;2.30;1.70;;;22.50;99.90;;;;;;1042926;28;20100;-71
2022/06/23 00:39:05;;;;;;;2.53;1.67;;;22.30;99.90;;;;;;1038881;28;20021;-71
2022/06/23 00:39:43;;;;;;;2.60;1.85;;;22.50;99.90;;;;;;1037268;28;20017;-72
2022/06/23 00:40:14;;;;;;;4.03;1.95;;;22.40;99.90;;;;;;1039028;28;20006;-73
2022/06/23 00:40:45;;;;;;;3.88;1.60;;;22.50;99.90;;;;;;1040460;28;20833;-72
2022/06/23 00:41:20;;;;;;;2.07;1.70;;;22.50;99.90;;;;;;1040203;28;20477;-72
2022/06/23 00:41:51;;;;;;;5.30;2.47;;;22.60;99.90;;;;;;1043011;28;20029;-72
2022/06/23 00:42:38;;;;;;;4.80;1.90;;;22.50;99.90;;;;;;1042880;28;20099;-71
2022/06/23 00:43:10;;;;;;;4.07;2.00;;;22.50;99.90;;;;;;1043232;28;20024;-71
2022/06/23 00:43:46;;;;;;;4.40;1.92;;;22.30;99.90;;;;;;1043373;28;20068;-72
2022/06/23 00:44:45;;;;;;;2.88;1.95;;;22.40;99.90;;;;;;1042945;28;20028;-72
2022/06/23 00:45:25;;;;;;;4.05;2.65;;;22.50;99.90;;;;;;1038794;28;20030;-73
2022/06/23 00:46:09;;;;;;;3.50;2.15;;;22.70;99.90;;;;;;1039837;28;20673;-74
2022/06/23 00:46:50;;;;;;;4.20;2.00;;;22.40;99.90;;;;;;1042785;28;20021;-72
2022/06/23 00:47:27;;;;;;;3.60;1.98;;;22.30;99.90;;;;;;1038542;28;20076;-72
2022/06/23 00:48:03;;;;;;;2.88;2.30;;;22.40;99.90;;;;;;1043122;28;20615;-72
2022/06/23 00:48:48;;;;;;;4.50;2.38;;;22.40;99.90;;;;;;1038678;28;20029;-72
2022/06/23 00:49:42;;;;;;;3.08;2.15;;;22.60;99.90;;;;;;1042638;28;20032;-73
2022/06/23 00:50:28;;;;;;;3.00;2.10;;;22.40;99.90;;;;;;1043132;28;20018;-72
2022/06/23 00:51:08;;;;;;;3.65;2.20;;;22.40;99.90;;;;;;1043407;28;20815;-71
2022/06/23 00:51:44;;;;;;;4.30;2.13;;;22.40;99.90;;;;;;1042879;28;20511;-72
2022/06/23 00:52:22;;;;;;;3.47;1.90;;;22.40;99.90;;;;;;1043003;28;20041;-72
2022/06/23 00:53:14;;;;;;;2.47;1.90;;;22.30;99.90;;;;;;1043105;28;20025;-72
2022/06/23 00:54:10;;;;;;;3.83;2.50;;;22.40;99.90;;;;;;1043437;28;20108;-72
2022/06/23 00:54:46;;;;;;;3.30;2.00;;;22.40;99.90;;;;;;1043169;28;20127;-70
2022/06/23 00:55:34;;;;;;;2.45;1.75;;;22.40;99.90;;;;;;1043251;28;20464;-72
2022/06/23 00:56:26;;;;;;;3.60;2.10;;;22.50;99.90;;;;;;1043344;28;20036;-71
2022/06/23 00:57:09;;;;;;;3.85;2.08;;;22.30;99.90;;;;;;1042920;28;20543;-72
2022/06/23 00:57:49;;;;;;;2.85;1.90;;;22.30;99.90;;;;;;1038829;28;20473;-72
2022/06/23 00:58:22;;;;;;;4.03;2.00;;;22.30;99.90;;;;;;1038823;28;20018;-72
2022/06/23 00:58:53;;;;;;;2.10;1.67;;;22.30;99.90;;;;;;1039268;28;20045;-72
2022/06/23 00:59:36;;;;;;;2.65;1.60;;;22.30;99.90;;;;;;1044087;28;20036;-72
2022/06/23 01:00:37;;;;;;;2.08;1.85;;;22.30;99.90;;;;;;1047069;28;20053;-72
2022/06/23 01:01:52;;;;;;;2.67;2.05;;;22.20;99.90;;;;;;1047156;28;20020;-71
2022/06/23 01:02:55;;;;;;;2.08;1.75;;;22.30;99.90;;;;;;1046630;28;20048;-72
2022/06/23 01:03:37;;;;;;;2.78;1.80;;;22.30;99.90;;;;;;1043321;28;20104;-72
2022/06/23 01:04:32;;;;;;;2.92;2.03;;;22.40;99.90;;;;;;1042859;28;20041;-72
2022/06/23 01:05:19;;;;;;;3.67;2.10;;;22.40;99.90;;;;;;1043030;28;20013;-72
2022/06/23 01:06:14;;;;;;;4.78;2.35;;;22.30;99.90;;;;;;1043655;28;20014;-72
2022/06/23 01:07:03;;;;;;;3.90;2.55;;;22.30;99.90;;;;;;1043349;28;20440;-72
2022/06/23 01:07:55;;;;;;;2.60;1.95;;;22.30;99.90;;;;;;1042847;28;20480;-73
2022/06/23 01:08:29;;;;;;;3.42;1.83;;;22.20;99.90;;;;;;1042985;28;20017;-73
2022/06/23 01:09:13;;;;;;;3.65;2.22;;;22.20;99.90;;;;;;1042719;28;20595;-72
2022/06/23 01:09:54;;;;;;;5.20;2.47;;;22.40;99.90;;;;;;1042861;28;20018;-72
2022/06/23 01:10:44;;;;;;;2.80;2.22;;;22.20;99.90;;;;;;1042707;28;20540;-73
2022/06/23 01:11:38;;;;;;;2.05;1.77;;;22.20;99.90;;;;;;1038912;28;20861;-73
2022/06/23 01:12:36;;;;;;;3.30;1.75;;;22.00;99.90;;;;;;1043088;28;20017;-72
2022/06/23 01:13:17;;;;;;;2.92;2.20;;;22.20;99.90;;;;;;1043047;28;20032;-72
2022/06/23 01:14:11;;;;;;;2.38;2.00;;;22.20;99.90;;;;;;1043199;28;20020;-72
2022/06/23 01:14:57;;;;;;;3.05;2.10;;;22.20;99.90;;;;;;1043136;28;20492;-72
2022/06/23 01:15:47;;;;;;;3.72;2.20;;;22.20;99.90;;;;;;1043285;28;20013;-72
2022/06/23 01:16:24;;;;;;;2.70;1.92;;;22.40;99.90;;;;;;1043392;28;20108;-72
2022/06/23 01:17:16;;;;;;;3.92;2.13;;;22.10;99.90;;;;;;1042952;28;20021;-72
2022/06/23 01:18:05;;;;;;;5.13;2.10;;;22.20;99.90;;;;;;1042912;28;20013;-72
2022/06/23 01:18:42;;;;;;;3.47;2.30;;;22.20;99.90;;;;;;1040198;28;20031;-72
2022/06/23 01:19:33;;;;;;;2.75;1.75;;;22.20;99.90;;;;;;1042992;28;20455;-72
2022/06/23 01:20:15;;;;;;;3.30;2.00;;;22.20;99.90;;;;;;1038713;28;20014;-72
2022/06/23 01:20:58;;;;;;;3.05;2.28;;;22.20;99.90;;;;;;1042719;28;20792;-72
2022/06/23 01:21:44;;;;;;;3.75;2.03;;;22.20;99.90;;;;;;1044004;28;20096;-72
2022/06/23 01:22:28;;;;;;;4.13;2.33;;;22.20;99.90;;;;;;1042654;28;20025;-72
2022/06/23 01:23:05;;;;;;;3.67;2.00;;;22.20;99.90;;;;;;1046154;28;20012;-72
2022/06/23 01:23:49;;;;;;;2.55;2.17;;;22.10;99.90;;;;;;1047077;28;20023;-72
2022/06/23 01:24:38;;;;;;;2.17;1.90;;;22.10;99.90;;;;;;1046697;28;20016;-72
2022/06/23 01:25:37;;;;;;;4.22;2.10;;;22.20;99.90;;;;;;1047110;28;20016;-72
2022/06/23 01:26:16;;;;;;;3.53;2.00;;;22.10;99.90;;;;;;1047262;28;20090;-72
2022/06/23 01:27:04;;;;;;;4.13;2.28;;;22.10;99.90;;;;;;1047239;28;20025;-72
2022/06/23 01:27:59;;;;;;;2.72;2.08;;;22.10;99.90;;;;;;1046849;28;20017;-72
2022/06/23 01:28:36;;;;;;;3.10;1.92;;;22.10;99.90;;;;;;1046924;28;20074;-72
2022/06/23 01:29:19;;;;;;;3.33;2.30;;;22.40;99.90;;;;;;1047116;28;20372;-72
2022/06/23 01:30:13;;;;;;;4.22;2.42;;;22.20;99.90;;;;;;1047061;28;20639;-72
2022/06/23 01:31:10;;;;;;;3.03;2.40;;;22.10;99.90;;;;;;1046699;28;20411;-72
2022/06/23 01:31:46;;;;;;;2.95;1.98;;;22.10;99.90;;;;;;1047328;28;20016;-72
2022/06/23 01:32:31;;;;;;;3.00;2.03;;;22.00;99.90;;;;;;1047375;28;20017;-72
2022/06/23 01:33:21;;;;;;;2.28;1.98;;;22.10;99.90;;;;;;1047437;28;20047;-72
2022/06/23 01:33:57;;;;;;;3.20;2.10;;;22.10;99.90;;;;;;1046946;28;20024;-72
2022/06/23 01:35:00;;;;;;;4.13;2.45;;;22.10;99.90;;;;;;1046937;28;20119;-72
2022/06/23 01:35:40;;;;;;;3.60;2.00;;;22.10;99.90;;;;;;1046552;28;20027;-72
2022/06/23 01:36:32;;;;;;;3.25;2.55;;;22.10;99.90;;;;;;1047284;28;20012;-72
2022/06/23 01:37:14;;;;;;;3.55;2.30;;;22.00;99.90;;;;;;1046829;28;20044;-72
2022/06/23 01:37:56;;;;;;;2.20;1.80;;;22.00;99.90;;;;;;1046866;28;20107;-71
2022/06/23 01:38:47;;;;;;;3.67;2.03;;;22.10;99.90;;;;;;1046775;28;20013;-73
2022/06/23 01:39:36;;;;;;;3.15;2.40;;;22.00;99.90;;;;;;1046973;28;20055;-71
2022/06/23 01:40:34;;;;;;;3.25;2.28;;;22.00;99.90;;;;;;1046921;28;20020;-73
2022/06/23 01:41:16;;;;;;;3.70;2.20;;;22.00;99.90;;;;;;1047226;28;20019;-73
2022/06/23 01:41:56;;;;;;;2.33;2.05;;;21.80;99.90;;;;;;1047377;28;20341;-73
2022/06/23 01:42:47;;;;;;;3.00;2.45;;;22.00;99.90;;;;;;1046818;28;20028;-73
2022/06/23 01:43:40;;;;;;;2.63;2.10;;;22.00;99.90;;;;;;1046956;28;20024;-73
2022/06/23 01:44:18;;;;;;;4.65;2.17;;;22.10;99.90;;;;;;1041575;28;20044;-72
2022/06/23 01:44:56;;;;;;;3.20;2.40;;;21.90;99.90;;;;;;1042865;28;20542;-72
2022/06/23 01:45:35;;;;;;;2.72;1.92;;;21.90;99.90;;;;;;1038602;28;20615;-72
2022/06/23 01:46:14;;;;;;;3.97;2.00;;;22.00;99.90;;;;;;1041935;28;20013;-72
2022/06/23 01:46:49;;;;;;;3.35;2.22;;;22.20;99.90;;;;;;1042687;28;20029;-72
2022/06/23 01:47:27;;;;;;;4.68;2.42;;;21.90;99.90;;;;;;1042733;28;20476;-72
2022/06/23 01:49:26;;;;;;;3.70;2.58;;;21.90;99.90;;;;;;1042882;28;20075;-73
2022/06/23 01:50:33;;;;;;;2.38;2.05;;;22.00;99.90;;;;;;1043045;28;20092;-71
2022/06/23 01:51:05;;;;;;;3.35;2.40;;;22.00;99.90;;;;;;1043104;28;20024;-71
2022/06/23 01:51:36;;;;;;;2.17;1.98;;;21.60;99.90;;;;;;1042600;28;20053;-72
2022/06/23 01:52:17;;;;;;;3.23;2.50;;;22.00;99.90;;;;;;1042854;28;20017;-71
2022/06/23 01:53:12;;;;;;;3.78;2.60;;;22.00;99.90;;;;;;1042676;28;20108;-72
2022/06/23 01:53:42;;;;;;;4.10;2.70;;;21.80;99.90;;;;;;1042609;28;20014;-72
2022/06/23 01:54:24;;;;;;;3.97;2.30;;;21.90;99.90;;;;;;1043061;28;20432;-72
2022/06/23 01:55:06;;;;;;;3.67;2.28;;;22.00;99.90;;;;;;1042563;28;20049;-72
2022/06/23 01:55:50;;;;;;;2.63;2.15;;;21.90;99.90;;;;;;1046130;28;20459;-72
2022/06/23 01:56:39;;;;;;;3.33;1.92;;;22.00;99.90;;;;;;1046879;28;20020;-72
2022/06/23 01:57:22;;;;;;;7.45;2.50;;;21.90;99.90;;;;;;1046942;28;20060;-72
2022/06/23 01:58:03;;;;;;;2.88;2.33;;;22.00;99.90;;;;;;1046917;28;20776;-72
2022/06/23 01:58:51;;;;;;;2.60;2.20;;;22.00;99.90;;;;;;1046791;28;20028;-71
2022/06/23 01:59:30;;;;;;;5.13;2.65;;;22.00;99.90;;;;;;1046801;28;20024;-72
2022/06/23 02:00:00;;;;;;;4.22;2.63;;;21.90;99.90;;;;;;1047098;28;20088;-72
2022/06/23 02:00:34;;;;;;;5.47;2.43;;;22.00;99.90;;;;;;1047159;28;20392;-72
2022/06/23 02:01:06;;;;;;;3.58;2.42;;;21.90;99.90;;;;;;1047021;28;20055;-72
2022/06/23 02:02:05;;;;;;;2.50;2.17;;;22.00;99.90;;;;;;1046821;28;20389;-71
2022/06/23 02:03:06;;;;;;;2.67;2.17;;;22.00;99.90;;;;;;1044961;28;20464;-71
2022/06/23 02:03:41;;;;;;;3.78;2.25;;;22.00;99.90;;;;;;1043078;28;20399;-73
2022/06/23 02:04:20;;;;;;;3.28;2.50;;;21.90;99.90;;;;;;1042993;28;20116;-72
2022/06/23 02:04:53;;;;;;;4.65;2.20;;;21.80;99.90;;;;;;1043074;28;20051;-72
2022/06/23 02:05:45;;;;;;;3.95;2.15;;;21.90;99.90;;;;;;1042515;28;20067;-72
2022/06/23 02:06:27;;;;;;;3.33;2.35;;;21.90;99.90;;;;;;1042872;28;20096;-72
2022/06/23 02:07:21;;;;;;;3.85;2.47;;;21.70;99.90;;;;;;1042840;28;20100;-73
2022/06/23 02:07:55;;;;;;;3.15;2.33;;;21.90;99.90;;;;;;1043117;28;20009;-72
2022/06/23 02:08:40;;;;;;;4.53;2.03;;;21.90;99.90;;;;;;1042603;28;20009;-73
2022/06/23 02:09:24;;;;;;;2.65;2.30;;;21.90;99.90;;;;;;1042889;28;20035;-73
2022/06/23 02:10:04;;;;;;;2.03;1.65;;;21.90;99.90;;;;;;1042644;28;20040;-72
2022/06/23 02:10:47;;;;;;;4.13;2.28;;;21.90;99.90;;;;;;1042748;28;20067;-72
2022/06/23 02:11:45;;;;;;;3.80;2.35;;;21.90;99.90;;;;;;1043089;28;20078;-72
2022/06/23 02:12:45;;;;;;;6.13;2.70;;;21.90;99.90;;;;;;1043146;28;20017;-72
2022/06/23 02:13:34;;;;;;;2.65;2.10;;;21.80;99.90;;;;;;1042697;28;20071;-72
2022/06/23 02:14:20;;;;;;;5.70;2.85;;;21.80;99.90;;;;;;1043045;28;20071;-72
2022/06/23 02:15:15;;;;;;;2.92;2.22;;;21.80;99.90;;;;;;1042778;28;20024;-72
2022/06/23 02:16:34;;;;;;;3.28;2.08;;;22.10;99.90;;;;;;1043045;28;20070;-72
2022/06/23 02:17:39;;;;;;;3.67;2.50;;;21.70;99.90;;;;;;1030144;28;20030;-72
2022/06/23 02:18:45;;;;;;;2.58;2.08;;;22.10;99.90;;;;;;1026576;28;20086;-72
2022/06/23 02:19:40;;;;;;;4.72;2.88;;;21.80;99.90;;;;;;1034340;28;20048;-72
2022/06/23 02:20:22;;;;;;;3.58;2.58;;;21.80;99.90;;;;;;1034399;28;20753;-72
2022/06/23 02:21:04;;;;;;;2.28;2.03;;;21.80;99.90;;;;;;1030200;28;20034;-72
2022/06/23 02:22:13;;;;;;;2.25;1.83;;;21.80;99.90;;;;;;1030115;28;20105;-73
2022/06/23 02:22:46;;;;;;;3.65;2.95;;;22.00;99.90;;;;;;1028740;28;20665;-72
2022/06/23 02:23:47;;;;;;;3.85;2.17;;;21.70;99.90;;;;;;1038314;28;20014;-72
2022/06/23 02:24:30;;;;;;;1.92;1.70;;;21.80;99.90;;;;;;1034390;28;20093;-72
2022/06/23 02:25:18;;;;;;;3.28;2.40;;;21.90;99.90;;;;;;1030034;28;20014;-72
2022/06/23 02:25:57;;;;;;;3.25;2.33;;;21.80;99.90;;;;;;1042779;28;20321;-73
2022/06/23 02:26:48;;;;;;;3.35;2.28;;;21.80;99.90;;;;;;1046779;28;20009;-73
2022/06/23 02:27:24;;;;;;;2.90;2.03;;;21.80;99.90;;;;;;1047152;28;20012;-72
2022/06/23 02:28:23;;;;;;;2.53;2.00;;;21.80;99.90;;;;;;1047172;28;20222;-72
2022/06/23 02:29:15;;;;;;;5.28;2.75;;;21.90;99.90;;;;;;1047211;28;20005;-72
2022/06/23 02:29:57;;;;;;;5.68;2.33;;;21.80;99.90;;;;;;1047213;28;20012;-72
2022/06/23 02:30:35;;;;;;;2.58;2.05;;;21.80;99.90;;;;;;1046684;28;20371;-72
2022/06/23 02:31:21;;;;;;;3.03;2.45;;;22.00;99.90;;;;;;1046729;28;20013;-72
2022/06/23 02:32:02;;;;;;;3.80;2.33;;;21.80;99.90;;;;;;1046902;28;20079;-72
2022/06/23 02:32:39;;;;;;;4.40;2.28;;;21.90;99.90;;;;;;1047103;28;20013;-72
2022/06/23 02:33:31;;;;;;;2.28;1.80;;;21.40;99.90;;;;;;1046832;28;20472;-72
2022/06/23 02:34:20;;;;;;;2.95;2.17;;;21.70;99.90;;;;;;1046575;28;20020;-73
2022/06/23 02:35:08;;;;;;;3.72;2.50;;;21.80;99.90;;;;;;1046840;28;20606;-72
2022/06/23 02:35:51;;;;;;;3.05;2.03;;;21.80;99.90;;;;;;1046719;28;20039;-72
2022/06/23 02:36:30;;;;;;;4.30;2.10;;;21.80;99.90;;;;;;1047052;28;20398;-72
2022/06/23 02:37:38;;;;;;;2.72;2.13;;;21.80;99.90;;;;;;1047217;28;20012;-72
2022/06/23 02:38:19;;;;;;;4.22;2.63;;;21.70;99.90;;;;;;1047065;28;20024;-72
2022/06/23 02:39:02;;;;;;;3.85;2.50;;;21.90;99.90;;;;;;1046749;28;20025;-72
2022/06/23 02:39:58;;;;;;;6.50;2.65;;;21.80;99.90;;;;;;1046724;28;20082;-72
2022/06/23 02:40:43;;;;;;;4.55;2.60;;;21.80;99.90;;;;;;1046382;28;20032;-71
2022/06/23 02:41:20;;;;;;;3.17;2.30;;;21.60;99.90;;;;;;1047149;28;20396;-71
2022/06/23 02:41:56;;;;;;;3.15;2.28;;;21.70;99.90;;;;;;1047149;28;20013;-72
2022/06/23 02:42:38;;;;;;;2.60;2.15;;;21.80;99.90;;;;;;1047068;28;20135;-72
2022/06/23 02:43:10;;;;;;;3.38;2.33;;;21.70;99.90;;;;;;1046570;28;20025;-71
2022/06/23 02:43:48;;;;;;;4.88;2.15;;;21.70;99.90;;;;;;1046804;28;20017;-71
2022/06/23 02:44:19;;;;;;;4.40;2.63;;;21.70;99.90;;;;;;1046606;28;20182;-72
2022/06/23 02:45:07;;;;;;;3.87;2.43;;;21.70;99.90;;;;;;1046822;28;20120;-72
2022/06/23 02:46:00;;;;;;;3.17;2.28;;;21.70;99.90;;;;;;1046796;28;20115;-72
2022/06/23 02:46:55;;;;;;;2.90;2.28;;;21.70;99.90;;;;;;1047014;28;20045;-72
2022/06/23 02:47:48;;;;;;;5.72;2.42;;;21.70;99.90;;;;;;1046494;28;20025;-72
2022/06/23 02:48:33;;;;;;;3.70;2.50;;;21.70;99.90;;;;;;1046605;28;20042;-72
2022/06/23 02:49:26;;;;;;;2.80;1.98;;;21.60;99.90;;;;;;1047674;28;20020;-72
2022/06/23 02:50:06;;;;;;;3.35;2.00;;;21.70;99.90;;;;;;1047628;28;20508;-72
2022/06/23 02:50:43;;;;;;;3.38;2.45;;;21.60;99.90;;;;;;1047465;28;20086;-72
2022/06/23 02:51:22;;;;;;;3.97;2.40;;;21.60;99.90;;;;;;1047607;28;20025;-72
2022/06/23 02:52:27;;;;;;;3.35;2.38;;;21.70;99.90;;;;;;1047506;28;20075;-72
2022/06/23 02:53:13;;;;;;;3.47;2.40;;;21.70;99.90;;;;;;1047836;28;20056;-71
2022/06/23 02:54:06;;;;;;;2.45;2.20;;;21.60;99.90;;;;;;1047231;28;20025;-72
2022/06/23 02:54:45;;;;;;;2.95;2.30;;;21.60;99.90;;;;;;1047367;28;20040;-73
2022/06/23 02:55:28;;;;;;;3.78;2.28;;;21.60;99.90;;;;;;1047399;28;20143;-72
2022/06/23 02:56:11;;;;;;;2.50;2.20;;;21.60;99.90;;;;;;1047089;28;20035;-73
2022/06/23 02:56:51;;;;;;;3.22;2.47;;;21.60;99.90;;;;;;1043238;28;20075;-72
2022/06/23 02:57:45;;;;;;;3.28;2.35;;;21.60;99.90;;;;;;1043341;28;20094;-72
2022/06/23 02:58:24;;;;;;;3.15;2.42;;;21.50;99.90;;;;;;1043695;28;20029;-71
2022/06/23 02:59:07;;;;;;;4.80;2.30;;;21.70;99.90;;;;;;1047516;28;20570;-71
2022/06/23 02:59:52;;;;;;;3.17;2.10;;;21.60;99.90;;;;;;1047571;28;20020;-71
2022/06/23 03:00:34;;;;;;;3.03;2.30;;;21.60;99.90;;;;;;1047828;28;20051;-71
2022/06/23 03:01:33;;;;;;;3.15;2.28;;;21.70;99.90;;;;;;1047751;28;20127;-72
2022/06/23 03:02:16;;;;;;;3.78;2.65;;;21.40;99.90;;;;;;1036439;28;20823;-71
2022/06/23 03:03:09;;;;;;;2.97;2.30;;;21.70;99.90;;;;;;1047403;28;20021;-72
2022/06/23 03:03:46;;;;;;;4.15;2.17;;;21.50;99.90;;;;;;1047450;28;20131;-71
2022/06/23 03:04:33;;;;;;;2.70;2.25;;;21.50;99.90;;;;;;1043242;28;20027;-71
2022/06/23 03:05:26;;;;;;;3.40;2.22;;;21.90;99.90;;;;;;1043404;28;20025;-71
2022/06/23 03:06:19;;;;;;;3.30;1.90;;;21.60;99.90;;;;;;1047706;28;20107;-71
2022/06/23 03:07:01;;;;;;;3.83;2.33;;;21.80;99.90;;;;;;1047979;28;20035;-71
2022/06/23 03:07:42;;;;;;;3.85;2.13;;;21.50;99.90;;;;;;1047867;28;20019;-71
2022/06/23 03:08:25;;;;;;;2.78;2.17;;;21.60;99.90;;;;;;1047925;28;20024;-71
2022/06/23 03:09:07;;;;;;;3.63;2.40;;;21.80;99.90;;;;;;1047911;28;20211;-71
2022/06/23 03:09:40;;;;;;;2.83;2.25;;;21.50;99.90;;;;;;1047963;28;20443;-71
2022/06/23 03:10:18;;;;;;;2.50;2.30;;;21.70;99.90;;;;;;1047797;28;20017;-71
2022/06/23 03:11:03;;;;;;;2.70;2.35;;;21.60;99.90;;;;;;1047881;28;20392;-71
2022/06/23 03:11:54;;;;;;;3.67;2.33;;;21.60;99.90;;;;;;1047870;28;20020;-72
2022/06/23 03:12:40;;;;;;;5.88;3.03;;;21.60;99.90;;;;;;1047746;28;20052;-71
2022/06/23 03:13:17;;;;;;;3.42;2.50;;;21.60;99.90;;;;;;1047252;28;20688;-71
2022/06/23 03:13:59;;;;;;;3.40;2.22;;;21.60;99.90;;;;;;1047685;28;20108;-71
2022/06/23 03:15:01;;;;;;;3.90;2.50;;;21.60;99.90;;;;;;1043170;28;20029;-72
2022/06/23 03:15:55;;;;;;;4.68;2.70;;;21.60;99.90;;;;;;1043073;28;20321;-71
2022/06/23 03:16:26;;;;;;;3.10;2.42;;;21.60;99.90;;;;;;1030557;28;20061;-71
2022/06/23 03:17:24;;;;;;;4.10;2.70;;;21.60;99.90;;;;;;1026841;28;20113;-71
2022/06/23 03:18:04;;;;;;;5.03;2.75;;;21.60;99.90;;;;;;1036339;28;20052;-72
2022/06/23 03:19:00;;;;;;;5.90;2.70;;;21.60;99.90;;;;;;1043320;28;20092;-72
2022/06/23 03:19:40;;;;;;;4.72;2.60;;;21.60;99.90;;;;;;1043376;28;20029;-72
2022/06/23 03:20:38;;;;;;;3.33;2.45;;;21.60;99.90;;;;;;1043418;28;20027;-72
2022/06/23 03:21:18;;;;;;;5.00;2.47;;;21.40;99.90;;;;;;1043307;28;20102;-72
2022/06/23 03:22:13;;;;;;;3.45;2.60;;;21.50;99.90;;;;;;1045864;28;20370;-72
2022/06/23 03:23:12;;;;;;;4.00;2.40;;;21.50;99.90;;;;;;1047246;28;20395;-71
2022/06/23 03:24:12;;;;;;;3.38;2.17;;;21.50;99.90;;;;;;1047616;28;20094;-73
2022/06/23 03:25:04;;;;;;;4.03;2.20;;;21.50;99.90;;;;;;1047693;28;20044;-72
2022/06/23 03:25:44;;;;;;;3.47;2.40;;;21.60;99.90;;;;;;1047947;28;20324;-72
2022/06/23 03:26:42;;;;;;;4.05;2.30;;;21.50;99.90;;;;;;1047781;28;20024;-72
2022/06/23 03:27:35;;;;;;;3.80;2.38;;;21.50;99.90;;;;;;1047856;28;20091;-71
2022/06/23 03:28:19;;;;;;;3.20;2.20;;;21.50;99.90;;;;;;1047819;28;20052;-71
2022/06/23 03:29:03;;;;;;;3.92;3.15;;;21.50;99.90;;;;;;1047455;28;20086;-71
2022/06/23 03:29:46;;;;;;;4.15;2.90;;;21.50;99.90;;;;;;1043182;28;20516;-71
2022/06/23 03:30:58;;;;;;;2.67;2.42;;;21.30;99.90;;;;;;1043393;28;20404;-71
2022/06/23 03:31:37;;;;;;;3.38;2.75;;;21.50;99.90;;;;;;1033876;28;20295;-71
2022/06/23 03:32:28;;;;;;;2.53;2.33;;;21.40;99.90;;;;;;1047124;28;20032;-71
2022/06/23 03:33:07;;;;;;;3.28;2.30;;;21.40;99.90;;;;;;1048119;28;20017;-71
2022/06/23 03:33:46;;;;;;;3.92;2.55;;;21.40;99.90;;;;;;1047632;28;20013;-71
2022/06/23 03:34:25;;;;;;;3.25;2.60;;;21.40;99.90;;;;;;1047451;28;20086;-70
2022/06/23 03:35:17;;;;;;;4.88;2.92;;;21.50;99.90;;;;;;1047552;28;20038;-70
2022/06/23 03:35:54;;;;;;;4.13;3.10;;;21.40;99.90;;;;;;1047390;28;20267;-71
2022/06/23 03:36:33;;;;;;;3.08;2.40;;;21.40;99.90;;;;;;1047055;28;20147;-71
2022/06/23 03:37:13;;;;;;;4.53;2.95;;;21.40;99.90;;;;;;1047458;28;20020;-72
2022/06/23 03:38:07;;;;;;;4.80;2.75;;;21.60;99.90;;;;;;1043879;28;20039;-72
2022/06/23 03:41:44;;;;;;;4.03;2.65;;;21.40;99.90;;;;;;1047577;28;20044;-71
2022/06/23 03:42:25;;;;;;;4.85;2.80;;;21.40;99.90;;;;;;1047728;28;20074;-72
2022/06/23 03:43:08;;;;;;;3.60;2.25;;;21.40;99.90;;;;;;1047216;28;20074;-72
2022/06/23 03:43:56;;;;;;;4.93;2.60;;;21.30;99.90;;;;;;1047438;28;20096;-72
2022/06/23 03:44:32;;;;;;;3.08;2.20;;;21.40;99.90;;;;;;1047176;28;20017;-72
2022/06/23 03:45:32;;;;;;;4.30;2.55;;;21.40;99.90;;;;;;1047220;28;20012;-73
2022/06/23 03:46:31;;;;;;;3.92;2.80;;;21.40;99.90;;;;;;1047140;28;20041;-72
2022/06/23 03:47:15;;;;;;;3.60;2.28;;;21.10;99.90;;;;;;1038689;28;20166;-72
2022/06/23 03:48:04;;;;;;;2.72;2.15;;;21.50;99.90;;;;;;1045849;28;20130;-72
2022/06/23 03:48:46;;;;;;;5.50;2.58;;;21.40;99.90;;;;;;1047268;28;20092;-72
2022/06/23 03:49:43;;;;;;;2.97;2.38;;;21.40;99.90;;;;;;1047220;28;20411;-72
2022/06/23 03:50:43;;;;;;;3.20;2.80;;;21.50;99.90;;;;;;1047092;28;20177;-71
2022/06/23 03:51:23;;;;;;;3.33;2.20;;;21.40;99.90;;;;;;1046746;28;20029;-73
2022/06/23 03:52:00;;;;;;;6.38;3.03;;;21.50;99.90;;;;;;1047485;28;20012;-72
2022/06/23 03:52:40;;;;;;;8.18;3.00;;;21.60;99.90;;;;;;1047683;28;20268;-72
2022/06/23 03:53:25;;;;;;;2.75;2.20;;;21.50;99.90;;;;;;1047663;28;20015;-72